Time;durP1;ratioP1;P1;durP2;ratioP2;P2;SDS_P1;SDS_P2;PMS_P1;PMS_P2;Temp;Humidity;BMP_temperature;BMP_pressure;BME280_temperature;BME280_humidity;BME280_pressure;Samples;Min_cycle;Max_cycle;Signal;HPM_P1;HPM_P2
2024/01/21 00:02:24;;;;;;;15.33;4.27;;;;;;;;;;4924645;29;20032;-77
2024/01/21 00:04:49;;;;;;;12.33;4.50;;;;;;;;;;4939035;29;20046;-77
2024/01/21 00:07:15;;;;;;;11.30;4.73;;;;;;;;;;4955733;29;20039;-78
2024/01/21 00:09:44;;;;;;;12.27;4.70;;;;;;;;;;4954698;29;20043;-78
2024/01/21 00:12:25;;;;;;;11.40;4.73;;;;;;;;;;4938536;29;20047;-75
2024/01/21 00:14:53;;;;;;;15.60;4.50;;;;;;;;;;4936560;29;20038;-77
2024/01/21 00:17:21;;;;;;;9.48;4.07;;;;;;;;;;4921051;29;20044;-77
2024/01/21 00:19:52;;;;;;;7.53;3.50;;;;;;;;;;4920828;29;20036;-76
2024/01/21 00:22:22;;;;;;;9.70;4.10;;;;;;;;;;4937101;29;20111;-78
2024/01/21 00:24:55;;;;;;;12.90;3.90;;;;;;;;;;4935849;29;20052;-78
2024/01/21 00:27:28;;;;;;;13.03;3.73;;;;;;;;;;4907380;29;20062;-77
2024/01/21 00:29:55;;;;;;;;;;;;;;;;;;4907237;29;20047;-77
2024/01/21 00:32:49;;;;;;;7.70;3.17;;;;;;;;;;4936588;29;20001;-77
2024/01/21 00:35:20;;;;;;;10.80;3.53;;;;;;;;;;4938239;29;20038;-77
2024/01/21 00:37:47;;;;;;;8.80;3.73;;;;;;;;;;4919222;29;20123;-76
2024/01/21 00:40:16;;;;;;;10.33;4.37;;;;;;;;;;4896460;29;20475;-77
2024/01/21 00:42:48;;;;;;;8.77;4.17;;;;;;;;;;4929698;29;20059;-77
2024/01/21 00:45:31;;;;;;;12.73;4.10;;;;;;;;;;4935102;29;20043;-78
2024/01/21 00:48:00;;;;;;;10.67;4.40;;;;;;;;;;4927257;29;20028;-77
2024/01/21 00:50:31;;;;;;;10.80;3.90;;;;;;;;;;4927678;29;20079;-78
2024/01/21 00:53:17;;;;;;;9.00;3.47;;;;;;;;;;4921194;29;20036;-77
2024/01/21 00:55:49;;;;;;;11.43;4.30;;;;;;;;;;4931112;29;20036;-78
2024/01/21 00:58:20;;;;;;;12.60;4.10;;;;;;;;;;4915054;29;20372;-77
2024/01/21 01:01:03;;;;;;;11.47;4.30;;;;;;;;;;4949563;29;20108;-76
2024/01/21 01:04:00;;;;;;;10.07;3.23;;;;;;;;;;4956011;29;20066;-77
2024/01/21 01:06:36;;;;;;;10.00;4.10;;;;;;;;;;4911391;29;20054;-77
2024/01/21 01:12:00;;;;;;;8.90;3.73;;;;;;;;;;4908517;29;20043;-77
2024/01/21 01:14:43;;;;;;;11.00;4.93;;;;;;;;;;4917860;29;20052;-78
2024/01/21 01:17:35;;;;;;;11.20;3.77;;;;;;;;;;4946998;29;20028;-78
2024/01/21 01:20:05;;;;;;;8.77;3.30;;;;;;;;;;4914690;29;20050;-78
2024/01/21 01:22:36;;;;;;;10.97;4.83;;;;;;;;;;4900039;29;20504;-77
2024/01/21 01:25:13;;;;;;;10.10;4.67;;;;;;;;;;4914574;29;20459;-76
2024/01/21 01:27:41;;;;;;;10.70;4.27;;;;;;;;;;4914514;29;20044;-76
2024/01/21 01:30:19;;;;;;;7.70;3.97;;;;;;;;;;4946142;29;20047;-77
2024/01/21 01:33:24;;;;;;;13.47;4.57;;;;;;;;;;4936755;29;20048;-76
2024/01/21 01:35:55;;;;;;;9.03;4.10;;;;;;;;;;4917951;29;20044;-77
2024/01/21 01:38:27;;;;;;;10.57;4.20;;;;;;;;;;4900602;29;20039;-78
2024/01/21 01:40:59;;;;;;;10.90;4.73;;;;;;;;;;4914948;29;20030;-77
2024/01/21 01:43:31;;;;;;;10.47;4.63;;;;;;;;;;4930698;29;20038;-78
2024/01/21 01:46:27;;;;;;;8.47;4.10;;;;;;;;;;4944773;29;20040;-77
2024/01/21 01:48:54;;;;;;;12.30;4.87;;;;;;;;;;4899092;29;20104;-77
2024/01/21 01:51:25;;;;;;;9.50;4.83;;;;;;;;;;4946697;29;20035;-78
2024/01/21 01:53:55;;;;;;;11.87;4.37;;;;;;;;;;4913036;29;20052;-77
2024/01/21 01:56:29;;;;;;;9.67;4.40;;;;;;;;;;4898804;29;20055;-78
2024/01/21 01:59:10;;;;;;;10.97;4.00;;;;;;;;;;4897129;29;20048;-78
2024/01/21 02:01:38;;;;;;;15.17;4.83;;;;;;;;;;4898628;29;20393;-77
2024/01/21 02:04:08;;;;;;;11.40;4.60;;;;;;;;;;4946254;29;20040;-77
2024/01/21 02:06:42;;;;;;;13.37;4.60;;;;;;;;;;4931374;29;20063;-76
2024/01/21 02:09:15;;;;;;;18.17;5.07;;;;;;;;;;4947010;29;20040;-77
2024/01/21 02:11:48;;;;;;;10.20;4.27;;;;;;;;;;4904248;29;20422;-77
2024/01/21 02:14:20;;;;;;;12.47;5.13;;;;;;;;;;4938777;29;20043;-78
2024/01/21 02:16:51;;;;;;;17.00;4.80;;;;;;;;;;4917041;29;20046;-76
2024/01/21 02:19:26;;;;;;;12.27;4.47;;;;;;;;;;4913430;29;20044;-77
2024/01/21 02:21:58;;;;;;;12.00;3.93;;;;;;;;;;4928500;29;20266;-76
2024/01/21 02:24:36;;;;;;;11.63;4.53;;;;;;;;;;4929067;29;20055;-78
2024/01/21 02:27:18;;;;;;;13.97;5.57;;;;;;;;;;4958253;23;20096;-80
2024/01/21 02:29:44;;;;;;;13.87;4.43;;;;;;;;;;4950218;28;20058;-80
2024/01/21 02:32:10;;;;;;;11.90;4.53;;;;;;;;;;4966406;28;20058;-78
2024/01/21 02:34:35;;;;;;;11.47;4.50;;;;;;;;;;4930575;29;20051;-79
2024/01/21 02:37:02;;;;;;;10.13;3.97;;;;;;;;;;4947906;29;20023;-78
2024/01/21 02:39:28;;;;;;;9.47;4.27;;;;;;;;;;4915132;29;20035;-80
2024/01/21 02:41:54;;;;;;;12.10;4.40;;;;;;;;;;4946773;29;20058;-79
2024/01/21 02:44:21;;;;;;;12.07;5.00;;;;;;;;;;4930833;29;20046;-77
2024/01/21 02:46:48;;;;;;;10.73;4.57;;;;;;;;;;4947447;29;20039;-80
2024/01/21 02:49:16;;;;;;;11.20;4.70;;;;;;;;;;4931544;29;20118;-80
2024/01/21 02:51:42;;;;;;;11.20;4.20;;;;;;;;;;4949393;29;20031;-80
2024/01/21 02:54:07;;;;;;;9.67;4.07;;;;;;;;;;4936002;29;20028;-78
2024/01/21 02:56:37;;;;;;;9.68;4.28;;;;;;;;;;4957492;29;20091;-79
2024/01/21 02:59:03;;;;;;;10.73;4.20;;;;;;;;;;4940808;29;20042;-81
2024/01/21 03:01:32;;;;;;;12.90;4.80;;;;;;;;;;4934734;29;20039;-78
2024/01/21 03:03:59;;;;;;;9.90;4.03;;;;;;;;;;4941868;29;20043;-78
2024/01/21 03:06:24;;;;;;;9.87;4.13;;;;;;;;;;4945289;29;20039;-78
2024/01/21 03:08:50;;;;;;;8.47;3.90;;;;;;;;;;4927048;29;20023;-79
2024/01/21 03:11:19;;;;;;;10.77;3.97;;;;;;;;;;4943553;29;20043;-81
2024/01/21 03:13:45;;;;;;;;;;;;;;;;;;4943659;29;20046;-79
2024/01/21 03:16:11;;;;;;;9.77;4.10;;;;;;;;;;4945829;29;19918;-79
2024/01/21 03:18:38;;;;;;;14.20;4.67;;;;;;;;;;4944421;29;20051;-80
2024/01/21 03:21:07;;;;;;;10.10;3.93;;;;;;;;;;4942868;29;20035;-80
2024/01/21 03:23:33;;;;;;;12.00;4.43;;;;;;;;;;4941809;29;20018;-79
2024/01/21 03:25:59;;;;;;;10.00;4.33;;;;;;;;;;4958649;29;20045;-79
2024/01/21 03:28:25;;;;;;;7.80;3.83;;;;;;;;;;4943742;29;20042;-79
2024/01/21 03:30:51;;;;;;;10.77;4.10;;;;;;;;;;4941940;29;20035;-79
2024/01/21 03:33:16;;;;;;;8.60;4.33;;;;;;;;;;4943007;29;20047;-79
2024/01/21 03:35:42;;;;;;;7.93;4.20;;;;;;;;;;4972799;29;20054;-80
2024/01/21 03:38:08;;;;;;;8.47;3.67;;;;;;;;;;4958458;29;20031;-80
2024/01/21 03:40:33;;;;;;;11.17;4.10;;;;;;;;;;4925260;29;20120;-78
2024/01/21 03:42:59;;;;;;;9.43;4.03;;;;;;;;;;4941899;29;20038;-79
2024/01/21 03:45:25;;;;;;;8.20;3.90;;;;;;;;;;4942488;29;20058;-78
2024/01/21 03:47:51;;;;;;;12.57;4.43;;;;;;;;;;4941445;29;20035;-79
2024/01/21 03:50:19;;;;;;;9.37;3.63;;;;;;;;;;4973279;29;20051;-80
2024/01/21 03:52:49;;;;;;;8.32;3.78;;;;;;;;;;4938014;29;20031;-79
2024/01/21 03:55:15;;;;;;;10.43;3.93;;;;;;;;;;4939129;29;20102;-80
2024/01/21 03:57:40;;;;;;;10.10;4.07;;;;;;;;;;4939117;29;20071;-79
2024/01/21 04:00:08;;;;;;;7.40;3.50;;;;;;;;;;4953821;29;20035;-79
2024/01/21 04:02:38;;;;;;;9.33;4.23;;;;;;;;;;4954531;29;20035;-78
2024/01/21 04:05:05;;;;;;;11.87;3.70;;;;;;;;;;4937425;29;20074;-80
2024/01/21 04:07:30;;;;;;;7.70;3.83;;;;;;;;;;4953586;29;20095;-78
2024/01/21 04:09:56;;;;;;;8.93;3.90;;;;;;;;;;4938639;29;20050;-81
2024/01/21 04:12:22;;;;;;;9.23;3.77;;;;;;;;;;4938340;29;20035;-79
2024/01/21 04:14:48;;;;;;;8.10;3.77;;;;;;;;;;4952603;29;20042;-78
2024/01/21 04:17:13;;;;;;;7.43;3.50;;;;;;;;;;4935259;29;20040;-77
2024/01/21 04:19:39;;;;;;;9.30;3.37;;;;;;;;;;4950278;29;20055;-81
2024/01/21 04:22:05;;;;;;;9.50;3.80;;;;;;;;;;4937086;29;20059;-79
2024/01/21 04:24:30;;;;;;;9.40;3.87;;;;;;;;;;4937582;29;20031;-80
2024/01/21 04:26:56;;;;;;;9.20;4.10;;;;;;;;;;4938844;29;20103;-81
2024/01/21 04:29:23;;;;;;;8.73;3.70;;;;;;;;;;4937054;29;20383;-80
2024/01/21 04:31:50;;;;;;;10.00;3.97;;;;;;;;;;4935989;29;20035;-79
2024/01/21 04:34:16;;;;;;;9.03;4.13;;;;;;;;;;4936561;29;20035;-80
2024/01/21 04:36:41;;;;;;;10.17;4.93;;;;;;;;;;4940419;29;20043;-81
2024/01/21 04:39:07;;;;;;;8.27;3.63;;;;;;;;;;4956199;29;20035;-77
2024/01/21 04:41:33;;;;;;;13.30;4.33;;;;;;;;;;4939882;29;20038;-79
2024/01/21 04:43:59;;;;;;;11.00;3.93;;;;;;;;;;4940442;29;20109;-80
2024/01/21 04:46:25;;;;;;;10.60;4.03;;;;;;;;;;4925826;29;20058;-79
2024/01/21 04:48:51;;;;;;;7.53;3.80;;;;;;;;;;4942304;29;20023;-81
2024/01/21 04:51:17;;;;;;;8.37;4.13;;;;;;;;;;4941791;29;20035;-80
2024/01/21 04:53:43;;;;;;;8.77;3.77;;;;;;;;;;4942801;29;20042;-80
2024/01/21 04:56:15;;;;;;;12.30;4.00;;;;;;;;;;4942256;29;20046;-80
2024/01/21 04:58:41;;;;;;;12.00;4.10;;;;;;;;;;4939680;29;20100;-82
2024/01/21 05:01:08;;;;;;;10.33;4.00;;;;;;;;;;4942118;29;20498;-80
2024/01/21 05:03:34;;;;;;;9.43;3.80;;;;;;;;;;4955532;29;20039;-80
2024/01/21 05:06:01;;;;;;;13.30;3.87;;;;;;;;;;4940674;29;20444;-79
2024/01/21 05:08:27;;;;;;;9.73;4.30;;;;;;;;;;4942623;29;20042;-80
2024/01/21 05:10:52;;;;;;;9.17;4.13;;;;;;;;;;4958065;29;20043;-78
2024/01/21 05:13:19;;;;;;;11.17;4.47;;;;;;;;;;4975293;29;20036;-79
2024/01/21 05:15:44;;;;;;;8.00;3.87;;;;;;;;;;4957428;29;20038;-81
2024/01/21 05:18:10;;;;;;;8.47;3.97;;;;;;;;;;4941276;29;20368;-83
2024/01/21 05:20:36;;;;;;;12.77;4.60;;;;;;;;;;4957666;29;20513;-81
2024/01/21 05:23:03;;;;;;;9.67;4.13;;;;;;;;;;4957372;29;20039;-80
2024/01/21 05:25:28;;;;;;;11.10;4.20;;;;;;;;;;4943484;29;20062;-80
2024/01/21 05:27:55;;;;;;;12.93;4.50;;;;;;;;;;4960712;29;20039;-78
2024/01/21 05:30:21;;;;;;;11.73;4.53;;;;;;;;;;4946903;29;20120;-80
2024/01/21 05:32:50;;;;;;;12.37;3.93;;;;;;;;;;4946657;28;20027;-81
2024/01/21 05:35:16;;;;;;;12.27;4.67;;;;;;;;;;4978626;28;20067;-77
2024/01/21 05:37:42;;;;;;;9.83;3.70;;;;;;;;;;4963648;28;20047;-78
2024/01/21 05:40:08;;;;;;;9.80;4.20;;;;;;;;;;4964896;28;20026;-79
2024/01/21 05:42:34;;;;;;;8.90;4.20;;;;;;;;;;4949321;29;20039;-79
2024/01/21 05:45:01;;;;;;;7.23;3.50;;;;;;;;;;4964990;28;20047;-78
2024/01/21 05:47:26;;;;;;;8.67;3.80;;;;;;;;;;4947493;29;20034;-79
2024/01/21 05:49:52;;;;;;;10.17;3.87;;;;;;;;;;4964961;29;20032;-79
2024/01/21 05:52:18;;;;;;;7.57;3.83;;;;;;;;;;4949390;29;20051;-79
2024/01/21 05:54:43;;;;;;;11.87;4.27;;;;;;;;;;4964147;28;20094;-78
2024/01/21 05:57:09;;;;;;;8.03;3.90;;;;;;;;;;4948838;29;20110;-78
2024/01/21 05:59:35;;;;;;;7.80;4.27;;;;;;;;;;4962100;29;20035;-78
2024/01/21 06:02:00;;;;;;;8.63;3.47;;;;;;;;;;4959939;29;20019;-79
2024/01/21 06:04:26;;;;;;;10.03;3.70;;;;;;;;;;4949193;28;20498;-79
2024/01/21 06:06:52;;;;;;;9.37;4.63;;;;;;;;;;4980655;28;20083;-79
2024/01/21 06:09:18;;;;;;;11.30;4.07;;;;;;;;;;4944115;29;20064;-79
2024/01/21 06:11:44;;;;;;;8.33;3.53;;;;;;;;;;4939188;29;20066;-80
2024/01/21 06:14:10;;;;;;;8.27;4.03;;;;;;;;;;4948924;28;20027;-79
2024/01/21 06:16:36;;;;;;;8.90;3.63;;;;;;;;;;4949400;29;20054;-79
2024/01/21 06:19:02;;;;;;;6.53;3.13;;;;;;;;;;4963292;28;20039;-77
2024/01/21 06:21:28;;;;;;;8.90;3.10;;;;;;;;;;4949497;29;20051;-80
2024/01/21 06:23:53;;;;;;;6.93;3.03;;;;;;;;;;4933195;28;20106;-78
2024/01/21 06:26:19;;;;;;;9.43;3.67;;;;;;;;;;4965159;28;20095;-79
2024/01/21 06:28:46;;;;;;;7.43;3.47;;;;;;;;;;4948406;29;20031;-79
2024/01/21 06:31:11;;;;;;;9.53;3.53;;;;;;;;;;4964588;29;20031;-79
2024/01/21 06:33:38;;;;;;;7.67;3.47;;;;;;;;;;4947513;29;20046;-78
2024/01/21 06:36:03;;;;;;;7.90;3.70;;;;;;;;;;4949294;29;20039;-79
2024/01/21 06:38:29;;;;;;;9.37;3.53;;;;;;;;;;4930784;29;20130;-78
2024/01/21 06:40:55;;;;;;;6.27;2.93;;;;;;;;;;4928450;29;20094;-78
2024/01/21 06:43:20;;;;;;;9.63;3.63;;;;;;;;;;4928284;29;20079;-77
2024/01/21 06:45:46;;;;;;;9.10;3.50;;;;;;;;;;4943408;29;20079;-78
2024/01/21 06:48:11;;;;;;;10.33;3.27;;;;;;;;;;4942199;29;20032;-78
2024/01/21 06:50:37;;;;;;;7.53;3.43;;;;;;;;;;4960598;29;20030;-76
2024/01/21 06:53:03;;;;;;;6.80;2.87;;;;;;;;;;4926828;29;20495;-77
2024/01/21 06:55:29;;;;;;;6.33;2.93;;;;;;;;;;4942711;29;20116;-76
2024/01/21 06:57:54;;;;;;;7.93;3.40;;;;;;;;;;4927284;29;20502;-78
2024/01/21 07:00:21;;;;;;;7.47;3.40;;;;;;;;;;4927550;29;20031;-78
2024/01/21 07:02:46;;;;;;;6.60;2.80;;;;;;;;;;4927461;29;20549;-77
2024/01/21 07:05:13;;;;;;;7.97;3.00;;;;;;;;;;4910785;29;20035;-78
2024/01/21 07:07:38;;;;;;;6.33;2.77;;;;;;;;;;4942723;29;20035;-77
2024/01/21 07:10:04;;;;;;;7.27;2.50;;;;;;;;;;4942960;29;20122;-77
2024/01/21 07:12:30;;;;;;;8.23;2.83;;;;;;;;;;4931112;29;20042;-78
2024/01/21 07:14:56;;;;;;;10.20;3.10;;;;;;;;;;4929428;29;20035;-77
2024/01/21 07:17:22;;;;;;;6.43;2.80;;;;;;;;;;4944073;29;20031;-78
2024/01/21 07:19:52;;;;;;;8.97;3.07;;;;;;;;;;4927728;29;20058;-78
2024/01/21 07:22:21;;;;;;;7.87;2.33;;;;;;;;;;4943827;29;20045;-77
2024/01/21 07:24:46;;;;;;;5.65;2.30;;;;;;;;;;4926736;29;20027;-77
2024/01/21 07:27:12;;;;;;;7.10;3.00;;;;;;;;;;4942238;29;20094;-80
2024/01/21 07:29:38;;;;;;;4.87;2.13;;;;;;;;;;4943313;29;20475;-79
2024/01/21 07:32:04;;;;;;;5.20;2.23;;;;;;;;;;4927379;29;20043;-79
2024/01/21 07:34:29;;;;;;;5.60;2.90;;;;;;;;;;4944348;29;20641;-78
2024/01/21 07:36:55;;;;;;;9.33;2.90;;;;;;;;;;4948318;29;20031;-80
2024/01/21 07:39:21;;;;;;;8.77;2.90;;;;;;;;;;4951874;29;20038;-79
2024/01/21 07:41:46;;;;;;;4.47;2.10;;;;;;;;;;4957915;29;20043;-77
2024/01/21 07:44:12;;;;;;;8.40;2.90;;;;;;;;;;4942523;29;20443;-78
2024/01/21 07:46:38;;;;;;;8.40;2.43;;;;;;;;;;4926063;29;20118;-77
2024/01/21 07:49:03;;;;;;;10.20;2.50;;;;;;;;;;4956937;29;20039;-77
2024/01/21 07:51:29;;;;;;;6.50;2.50;;;;;;;;;;4925951;29;20046;-78
2024/01/21 07:53:55;;;;;;;7.13;2.80;;;;;;;;;;4924512;29;20035;-77
2024/01/21 07:56:22;;;;;;;5.80;2.73;;;;;;;;;;4941450;29;20521;-77
2024/01/21 07:58:47;;;;;;;8.93;2.60;;;;;;;;;;4941992;29;20027;-79
2024/01/21 08:01:13;;;;;;;7.93;2.47;;;;;;;;;;4961254;28;20027;-78
2024/01/21 08:03:39;;;;;;;5.93;2.50;;;;;;;;;;4941195;29;20043;-77
2024/01/21 08:06:07;;;;;;;6.27;2.87;;;;;;;;;;4940555;29;20039;-80
2024/01/21 08:08:33;;;;;;;7.63;3.30;;;;;;;;;;4940809;29;20031;-78
2024/01/21 08:10:59;;;;;;;6.63;2.87;;;;;;;;;;4924839;29;20050;-80
2024/01/21 08:13:24;;;;;;;6.07;2.47;;;;;;;;;;4929064;29;20038;-80
2024/01/21 08:15:50;;;;;;;5.73;2.37;;;;;;;;;;4933161;29;20038;-80
2024/01/21 08:18:18;;;;;;;7.78;2.92;;;;;;;;;;4951008;29;20042;-81
2024/01/21 08:20:44;;;;;;;5.82;2.80;;;;;;;;;;4949646;29;20035;-78
2024/01/21 08:23:10;;;;;;;5.80;2.83;;;;;;;;;;4946964;29;20038;-80
2024/01/21 08:25:35;;;;;;;5.78;2.53;;;;;;;;;;4934982;29;20039;-79
2024/01/21 08:28:01;;;;;;;9.43;3.00;;;;;;;;;;4967129;29;20039;-78
2024/01/21 08:30:26;;;;;;;12.40;3.15;;;;;;;;;;4949405;29;20114;-77
2024/01/21 08:32:52;;;;;;;7.78;2.63;;;;;;;;;;4942738;29;20106;-79
2024/01/21 08:35:20;;;;;;;5.97;2.37;;;;;;;;;;4941923;29;20059;-78
2024/01/21 08:37:47;;;;;;;7.70;2.80;;;;;;;;;;4957682;29;20035;-77
2024/01/21 08:40:12;;;;;;;6.43;2.80;;;;;;;;;;4926185;29;20582;-78
2024/01/21 08:42:39;;;;;;;6.07;2.60;;;;;;;;;;4941601;29;20033;-80
2024/01/21 08:45:05;;;;;;;4.70;2.00;;;;;;;;;;4924906;29;20141;-78
2024/01/21 08:47:33;;;;;;;6.53;2.40;;;;;;;;;;4942196;29;20031;-79
2024/01/21 08:49:59;;;;;;;6.15;2.70;;;;;;;;;;4926073;29;20072;-79
2024/01/21 08:52:25;;;;;;;6.95;3.22;;;;;;;;;;4926023;29;20039;-79
2024/01/21 08:54:50;;;;;;;7.90;2.90;;;;;;;;;;4956770;29;20031;-79
2024/01/21 08:57:16;;;;;;;8.00;2.88;;;;;;;;;;4940629;29;20031;-78
2024/01/21 08:59:42;;;;;;;7.25;2.42;;;;;;;;;;4925872;29;20042;-81
2024/01/21 09:02:08;;;;;;;5.28;2.28;;;;;;;;;;4925944;29;20034;-80
2024/01/21 09:04:35;;;;;;;6.55;2.90;;;;;;;;;;4925247;29;20050;-79
2024/01/21 09:07:00;;;;;;;6.15;2.72;;;;;;;;;;4925810;29;20039;-77
2024/01/21 09:09:26;;;;;;;6.03;2.58;;;;;;;;;;4940795;29;20553;-78
2024/01/21 09:11:51;;;;;;;6.82;2.85;;;;;;;;;;4942186;29;20035;-79
2024/01/21 09:14:18;;;;;;;6.85;2.22;;;;;;;;;;4928561;29;20536;-78
2024/01/21 09:16:44;;;;;;;4.82;2.40;;;;;;;;;;4929930;29;20434;-78
2024/01/21 09:19:09;;;;;;;6.40;2.60;;;;;;;;;;4945083;29;20038;-79
2024/01/21 09:21:36;;;;;;;7.50;2.78;;;;;;;;;;4945634;29;20038;-80
2024/01/21 09:24:04;;;;;;;5.80;2.53;;;;;;;;;;4929732;29;20035;-80
2024/01/21 09:26:30;;;;;;;6.17;2.80;;;;;;;;;;4930093;29;20574;-78
2024/01/21 09:28:56;;;;;;;6.18;2.08;;;;;;;;;;4916100;29;20129;-79
2024/01/21 09:31:22;;;;;;;6.10;2.30;;;;;;;;;;4932259;29;20071;-79
2024/01/21 09:33:47;;;;;;;6.45;3.17;;;;;;;;;;4965820;29;20062;-80
2024/01/21 09:36:15;;;;;;;5.70;2.85;;;;;;;;;;4934714;29;20029;-80
2024/01/21 09:38:43;;;;;;;5.70;2.42;;;;;;;;;;4966020;29;20027;-78
2024/01/21 09:41:14;;;;;;;4.20;2.22;;;;;;;;;;4934465;29;20151;-78
2024/01/21 09:43:42;;;;;;;6.03;2.58;;;;;;;;;;4936019;29;20036;-76
2024/01/21 09:46:12;;;;;;;8.27;2.13;;;;;;;;;;4935843;29;20031;-79
2024/01/21 09:48:38;;;;;;;4.18;1.90;;;;;;;;;;4938332;29;20071;-80
2024/01/21 09:51:08;;;;;;;5.28;2.28;;;;;;;;;;4938148;29;20054;-79
2024/01/21 09:53:34;;;;;;;8.25;1.98;;;;;;;;;;4938643;29;20086;-79
2024/01/21 09:56:06;;;;;;;6.13;1.58;;;;;;;;;;4954400;29;20058;-79
2024/01/21 09:58:33;;;;;;;5.95;1.58;;;;;;;;;;4941621;29;20035;-79
2024/01/21 10:00:59;;;;;;;7.47;1.73;;;;;;;;;;4973272;29;20402;-79
2024/01/21 10:03:25;;;;;;;4.50;1.83;;;;;;;;;;4938428;29;20035;-78
2024/01/21 10:05:51;;;;;;;3.08;1.42;;;;;;;;;;4936371;29;20094;-81
2024/01/21 10:08:16;;;;;;;5.90;1.58;;;;;;;;;;4936373;29;20398;-78
2024/01/21 10:10:44;;;;;;;4.82;1.80;;;;;;;;;;4952449;29;20039;-78
2024/01/21 10:13:09;;;;;;;8.38;2.05;;;;;;;;;;4951695;29;20032;-79
2024/01/21 10:15:35;;;;;;;7.65;1.40;;;;;;;;;;4936490;29;20071;-79
2024/01/21 10:18:01;;;;;;;4.03;1.40;;;;;;;;;;4950946;29;20020;-79
2024/01/21 10:20:28;;;;;;;4.97;2.00;;;;;;;;;;4934075;29;20470;-80
2024/01/21 10:23:07;;;;;;;5.18;1.90;;;;;;;;;;4934672;29;20031;-81
2024/01/21 10:25:32;;;;;;;6.72;1.92;;;;;;;;;;4951589;29;20062;-78
2024/01/21 10:27:58;;;;;;;8.05;3.50;;;;;;;;;;4938082;29;20494;-79
2024/01/21 10:30:24;;;;;;;10.23;2.90;;;;;;;;;;4954481;29;20467;-79
2024/01/21 10:32:51;;;;;;;7.03;2.20;;;;;;;;;;4970956;29;20039;-80
2024/01/21 10:35:17;;;;;;;9.25;2.92;;;;;;;;;;4957951;29;20042;-80
2024/01/21 10:37:43;;;;;;;4.40;1.90;;;;;;;;;;4942266;29;20027;-79
2024/01/21 10:40:09;;;;;;;9.95;1.92;;;;;;;;;;4959784;29;20042;-80
2024/01/21 10:42:35;;;;;;;4.03;1.33;;;;;;;;;;4944594;29;20026;-81
2024/01/21 10:45:02;;;;;;;16.02;1.73;;;;;;;;;;4944916;29;20027;-79
2024/01/21 10:47:31;;;;;;;3.50;1.10;;;;;;;;;;4958583;29;20035;-79
2024/01/21 10:49:58;;;;;;;7.13;1.50;;;;;;;;;;4943247;29;20049;-80
2024/01/21 10:52:24;;;;;;;2.95;1.20;;;;;;;;;;4938470;29;20284;-80
2024/01/21 10:54:49;;;;;;;3.42;1.27;;;;;;;;;;4938930;29;20027;-81
2024/01/21 10:57:17;;;;;;;9.15;1.73;;;;;;;;;;4940869;29;20039;-81
2024/01/21 10:59:44;;;;;;;5.30;1.30;;;;;;;;;;4956510;29;20098;-78
2024/01/21 11:02:10;;;;;;;4.75;1.70;;;;;;;;;;4945065;29;20031;-81
2024/01/21 11:04:36;;;;;;;4.15;1.65;;;;;;;;;;4940497;29;20042;-80
2024/01/21 11:07:04;;;;;;;5.97;1.80;;;;;;;;;;4946950;29;20031;-79
2024/01/21 11:09:32;;;;;;;14.40;2.03;;;;;;;;;;4931757;29;20034;-80
2024/01/21 11:12:01;;;;;;;3.72;1.40;;;;;;;;;;4929865;29;20055;-79
2024/01/21 11:14:30;;;;;;;4.63;1.50;;;;;;;;;;4929192;29;20027;-79
2024/01/21 11:16:56;;;;;;;5.60;1.55;;;;;;;;;;4929295;29;20023;-78
2024/01/21 11:19:26;;;;;;;6.87;1.87;;;;;;;;;;4945064;29;20031;-79
2024/01/21 11:21:52;;;;;;;;;;;;;;;;;;4944635;29;20069;-78
2024/01/21 11:24:18;;;;;;;4.82;1.50;;;;;;;;;;4928628;29;19910;-80
2024/01/21 11:26:50;;;;;;;10.57;1.85;;;;;;;;;;4944014;29;20102;-78
2024/01/21 11:29:23;;;;;;;6.38;1.92;;;;;;;;;;4913752;29;20035;-80
2024/01/21 11:31:49;;;;;;;6.30;1.80;;;;;;;;;;4945223;29;20658;-81
2024/01/21 11:34:16;;;;;;;5.97;2.58;;;;;;;;;;4928743;29;20037;-80
2024/01/21 11:36:46;;;;;;;10.00;2.67;;;;;;;;;;4929901;29;20031;-80
2024/01/21 11:39:11;;;;;;;6.03;2.35;;;;;;;;;;4944985;29;20038;-79
2024/01/21 11:41:39;;;;;;;6.10;2.30;;;;;;;;;;4915178;29;20443;-81
2024/01/21 11:44:09;;;;;;;3.30;1.55;;;;;;;;;;4929343;29;20039;-81
2024/01/21 11:46:35;;;;;;;4.22;1.60;;;;;;;;;;4944818;29;20047;-79
2024/01/21 11:49:02;;;;;;;7.65;2.22;;;;;;;;;;4913461;29;20449;-79
2024/01/21 11:51:28;;;;;;;3.72;1.70;;;;;;;;;;4929897;29;20070;-79
2024/01/21 11:53:53;;;;;;;6.35;1.70;;;;;;;;;;4913906;29;20099;-82
2024/01/21 11:56:20;;;;;;;9.13;2.00;;;;;;;;;;4943164;29;20133;-81
2024/01/21 11:58:46;;;;;;;7.65;1.80;;;;;;;;;;4942755;29;20086;-78
2024/01/21 12:01:12;;;;;;;4.18;1.73;;;;;;;;;;4927851;29;20118;-79
2024/01/21 12:03:37;;;;;;;4.53;1.90;;;;;;;;;;4942036;29;20034;-81
2024/01/21 12:06:05;;;;;;;8.15;1.98;;;;;;;;;;4939315;29;20047;-79
2024/01/21 12:08:31;;;;;;;4.55;2.03;;;;;;;;;;4910349;29;20031;-78
2024/01/21 12:11:00;;;;;;;;;;;;;;;;;;4929524;29;20120;-79
2024/01/21 12:13:27;;;;;;;7.63;2.40;;;;;;;;;;4927089;29;19923;-81
2024/01/21 12:15:53;;;;;;;11.57;4.22;;;;;;;;;;4942805;29;20081;-78
2024/01/21 12:18:19;;;;;;;11.05;3.65;;;;;;;;;;4943248;29;20035;-78
2024/01/21 12:20:46;;;;;;;6.10;2.85;;;;;;;;;;4943053;29;20479;-81
2024/01/21 12:23:21;;;;;;;6.03;2.40;;;;;;;;;;4959210;29;20043;-79
2024/01/21 12:25:49;;;;;;;7.18;2.20;;;;;;;;;;4928131;29;20069;-80
2024/01/21 12:28:15;;;;;;;12.30;2.40;;;;;;;;;;4911481;29;20038;-80
2024/01/21 12:30:43;;;;;;;6.95;2.17;;;;;;;;;;4926310;29;20130;-79
2024/01/21 12:33:09;;;;;;;4.97;1.70;;;;;;;;;;4926897;29;20035;-80
2024/01/21 12:35:35;;;;;;;6.20;1.92;;;;;;;;;;4928532;29;20038;-79
2024/01/21 12:38:01;;;;;;;5.93;2.10;;;;;;;;;;4927034;29;20023;-81
2024/01/21 12:40:27;;;;;;;4.45;2.00;;;;;;;;;;4912235;29;20035;-78
2024/01/21 12:42:54;;;;;;;3.42;1.63;;;;;;;;;;4925871;29;20040;-79
2024/01/21 12:45:20;;;;;;;5.65;1.95;;;;;;;;;;4925423;28;20042;-79
2024/01/21 12:47:49;;;;;;;8.00;1.98;;;;;;;;;;4929546;29;20558;-80
2024/01/21 12:50:15;;;;;;;5.22;1.98;;;;;;;;;;4948797;29;20118;-80
2024/01/21 12:52:41;;;;;;;6.32;1.80;;;;;;;;;;4948966;29;20075;-81
2024/01/21 12:55:09;;;;;;;7.65;1.50;;;;;;;;;;4931110;29;20475;-79
2024/01/21 12:57:35;;;;;;;5.43;1.80;;;;;;;;;;4929017;29;20045;-79
2024/01/21 13:00:03;;;;;;;4.53;1.40;;;;;;;;;;4929426;29;20035;-80
2024/01/21 13:02:30;;;;;;;5.38;1.90;;;;;;;;;;4929509;29;20403;-80
2024/01/21 13:04:56;;;;;;;4.25;1.50;;;;;;;;;;4929067;29;20443;-80
2024/01/21 13:07:22;;;;;;;5.80;2.55;;;;;;;;;;4930360;29;20058;-81
2024/01/21 13:09:49;;;;;;;3.22;1.40;;;;;;;;;;4930488;29;20130;-81
2024/01/21 13:12:15;;;;;;;3.38;1.25;;;;;;;;;;4929622;29;20046;-81
2024/01/21 13:14:41;;;;;;;4.78;1.70;;;;;;;;;;4928666;29;20034;-80
2024/01/21 13:17:07;;;;;;;2.95;1.08;;;;;;;;;;4930593;29;20090;-81
2024/01/21 13:19:32;;;;;;;3.55;1.65;;;;;;;;;;4950733;29;20067;-80
2024/01/21 13:22:06;;;;;;;4.35;1.58;;;;;;;;;;4934981;29;20031;-81
2024/01/21 13:24:35;;;;;;;3.95;1.90;;;;;;;;;;4950407;29;20035;-81
2024/01/21 13:27:09;;;;;;;10.90;1.67;;;;;;;;;;4939132;29;20043;-81
2024/01/21 13:32:20;;;;;;;5.75;2.20;;;;;;;;;;4937901;29;20050;-80
2024/01/21 13:34:47;;;;;;;3.83;2.00;;;;;;;;;;4935317;29;20039;-81
2024/01/21 13:37:13;;;;;;;5.10;1.90;;;;;;;;;;4938830;29;20059;-82
2024/01/21 13:39:40;;;;;;;7.60;1.70;;;;;;;;;;4948427;29;20479;-80
2024/01/21 13:42:06;;;;;;;8.32;1.83;;;;;;;;;;4931616;29;20035;-81
2024/01/21 13:44:32;;;;;;;8.02;2.63;;;;;;;;;;4929932;29;20059;-81
2024/01/21 13:46:58;;;;;;;9.93;3.13;;;;;;;;;;4928926;29;20035;-80
2024/01/21 13:49:24;;;;;;;10.68;3.35;;;;;;;;;;4944347;29;20648;-79
2024/01/21 13:51:52;;;;;;;5.65;2.28;;;;;;;;;;4929587;29;20042;-78
2024/01/21 13:54:26;;;;;;;3.50;1.70;;;;;;;;;;4915112;29;20407;-80
2024/01/21 13:56:52;;;;;;;9.88;2.30;;;;;;;;;;4929595;28;20031;-81
2024/01/21 13:59:18;;;;;;;6.10;2.00;;;;;;;;;;4946174;29;20667;-81
2024/01/21 14:01:44;;;;;;;4.85;2.30;;;;;;;;;;4944728;29;20124;-80
2024/01/21 14:04:10;;;;;;;5.88;2.13;;;;;;;;;;4944131;29;20071;-81
2024/01/21 14:06:36;;;;;;;8.40;2.33;;;;;;;;;;4946054;29;20066;-79
2024/01/21 14:09:02;;;;;;;7.78;2.47;;;;;;;;;;4933040;29;20039;-82
2024/01/21 14:11:27;;;;;;;7.03;2.08;;;;;;;;;;4952396;29;20372;-80
2024/01/21 14:13:53;;;;;;;3.92;1.80;;;;;;;;;;4955717;29;20027;-81
2024/01/21 14:16:19;;;;;;;5.30;2.30;;;;;;;;;;4950343;29;20089;-79
2024/01/21 14:18:46;;;;;;;6.22;2.20;;;;;;;;;;4937613;29;20035;-80
2024/01/21 14:21:12;;;;;;;5.25;1.92;;;;;;;;;;4931663;29;20035;-80
2024/01/21 14:23:38;;;;;;;6.28;2.53;;;;;;;;;;4930996;29;20106;-80
2024/01/21 14:26:07;;;;;;;4.97;2.17;;;;;;;;;;4953798;23;20074;-76
2024/01/21 14:28:37;;;;;;;5.38;2.35;;;;;;;;;;4956649;29;20372;-77
2024/01/21 14:31:11;;;;;;;5.28;2.22;;;;;;;;;;4941927;29;20055;-76
2024/01/21 14:33:41;;;;;;;7.45;2.55;;;;;;;;;;4958405;29;20035;-76
2024/01/21 14:36:08;;;;;;;6.65;2.38;;;;;;;;;;4975168;29;20024;-76
2024/01/21 14:38:34;;;;;;;6.28;2.80;;;;;;;;;;4959333;29;20016;-77
2024/01/21 14:41:01;;;;;;;7.60;2.58;;;;;;;;;;4929587;29;20074;-77
2024/01/21 14:43:27;;;;;;;10.70;2.50;;;;;;;;;;4942326;29;20035;-76
2024/01/21 14:45:53;;;;;;;9.65;2.45;;;;;;;;;;4954395;29;20019;-76
2024/01/21 14:48:19;;;;;;;6.47;2.60;;;;;;;;;;4943504;29;20475;-76
2024/01/21 14:50:45;;;;;;;8.02;2.72;;;;;;;;;;4955582;29;20134;-77